sensor_id;sensor_type;location;lat;lon;timestamp;P1;durP1;ratioP1;P2;durP2;ratioP2
32445;SDS011;18899;50.748;7.102;2023-12-28T00:01:13;4.72;;;1.40;;
32445;SDS011;18899;50.748;7.102;2023-12-28T00:03:39;3.17;;;1.65;;
32445;SDS011;18899;50.748;7.102;2023-12-28T00:06:06;3.75;;;1.55;;
32445;SDS011;18899;50.748;7.102;2023-12-28T00:08:31;2.63;;;1.42;;
32445;SDS011;18899;50.748;7.102;2023-12-28T00:10:57;5.63;;;2.40;;
32445;SDS011;18899;50.748;7.102;2023-12-28T00:13:23;4.10;;;1.80;;
32445;SDS011;18899;50.748;7.102;2023-12-28T00:15:49;3.00;;;1.52;;
32445;SDS011;18899;50.748;7.102;2023-12-28T00:18:14;6.60;;;1.77;;
32445;SDS011;18899;50.748;7.102;2023-12-28T00:20:40;2.88;;;1.50;;
32445;SDS011;18899;50.748;7.102;2023-12-28T00:23:05;4.90;;;1.92;;
32445;SDS011;18899;50.748;7.102;2023-12-28T00:25:31;3.63;;;1.73;;
32445;SDS011;18899;50.748;7.102;2023-12-28T00:27:56;5.25;;;1.60;;
32445;SDS011;18899;50.748;7.102;2023-12-28T00:30:22;3.42;;;1.63;;
32445;SDS011;18899;50.748;7.102;2023-12-28T00:32:47;5.10;;;1.50;;
32445;SDS011;18899;50.748;7.102;2023-12-28T00:35:13;3.85;;;1.45;;
32445;SDS011;18899;50.748;7.102;2023-12-28T00:37:39;7.07;;;2.22;;
32445;SDS011;18899;50.748;7.102;2023-12-28T00:40:05;5.00;;;1.85;;
32445;SDS011;18899;50.748;7.102;2023-12-28T00:42:31;3.05;;;1.42;;
32445;SDS011;18899;50.748;7.102;2023-12-28T00:44:56;2.53;;;1.33;;
32445;SDS011;18899;50.748;7.102;2023-12-28T00:47:22;3.22;;;1.30;;
32445;SDS011;18899;50.748;7.102;2023-12-28T00:49:47;2.40;;;1.10;;
32445;SDS011;18899;50.748;7.102;2023-12-28T00:52:13;3.25;;;1.17;;
32445;SDS011;18899;50.748;7.102;2023-12-28T00:54:38;1.48;;;1.02;;
32445;SDS011;18899;50.748;7.102;2023-12-28T00:57:04;3.45;;;1.15;;
32445;SDS011;18899;50.748;7.102;2023-12-28T00:59:30;4.55;;;1.20;;
32445;SDS011;18899;50.748;7.102;2023-12-28T01:01:56;2.28;;;1.20;;
32445;SDS011;18899;50.748;7.102;2023-12-28T01:04:22;2.90;;;1.10;;
32445;SDS011;18899;50.748;7.102;2023-12-28T01:06:48;4.60;;;1.02;;
32445;SDS011;18899;50.748;7.102;2023-12-28T01:09:14;2.05;;;1.05;;
32445;SDS011;18899;50.748;7.102;2023-12-28T01:11:39;2.00;;;1.30;;
32445;SDS011;18899;50.748;7.102;2023-12-28T01:14:05;2.33;;;1.20;;
32445;SDS011;18899;50.748;7.102;2023-12-28T01:16:31;2.28;;;1.25;;
32445;SDS011;18899;50.748;7.102;2023-12-28T01:18:56;2.35;;;0.98;;
32445;SDS011;18899;50.748;7.102;2023-12-28T01:21:22;2.42;;;1.02;;
32445;SDS011;18899;50.748;7.102;2023-12-28T01:23:47;3.08;;;1.10;;
32445;SDS011;18899;50.748;7.102;2023-12-28T01:26:13;2.78;;;1.30;;
32445;SDS011;18899;50.748;7.102;2023-12-28T01:28:45;3.33;;;1.55;;
32445;SDS011;18899;50.748;7.102;2023-12-28T01:31:10;1.98;;;0.95;;
32445;SDS011;18899;50.748;7.102;2023-12-28T01:33:36;1.33;;;1.10;;
32445;SDS011;18899;50.748;7.102;2023-12-28T01:36:02;6.05;;;1.20;;
32445;SDS011;18899;50.748;7.102;2023-12-28T01:38:28;2.38;;;1.00;;
32445;SDS011;18899;50.748;7.102;2023-12-28T01:40:53;2.08;;;1.20;;
32445;SDS011;18899;50.748;7.102;2023-12-28T01:43:19;2.10;;;1.23;;
32445;SDS011;18899;50.748;7.102;2023-12-28T01:45:45;4.50;;;1.10;;
32445;SDS011;18899;50.748;7.102;2023-12-28T01:48:10;2.45;;;0.98;;
32445;SDS011;18899;50.748;7.102;2023-12-28T01:50:38;4.13;;;1.23;;
32445;SDS011;18899;50.748;7.102;2023-12-28T01:53:04;3.10;;;1.30;;
32445;SDS011;18899;50.748;7.102;2023-12-28T01:55:31;3.90;;;1.05;;
32445;SDS011;18899;50.748;7.102;2023-12-28T01:57:58;2.10;;;1.33;;
32445;SDS011;18899;50.748;7.102;2023-12-28T02:00:24;1.98;;;1.20;;
32445;SDS011;18899;50.748;7.102;2023-12-28T02:02:50;4.30;;;1.50;;
32445;SDS011;18899;50.748;7.102;2023-12-28T02:05:16;2.22;;;1.00;;
32445;SDS011;18899;50.748;7.102;2023-12-28T02:07:42;4.18;;;1.20;;
32445;SDS011;18899;50.748;7.102;2023-12-28T02:10:08;3.75;;;1.30;;
32445;SDS011;18899;50.748;7.102;2023-12-28T02:12:33;2.55;;;1.05;;
32445;SDS011;18899;50.748;7.102;2023-12-28T02:14:59;5.43;;;1.10;;
32445;SDS011;18899;50.748;7.102;2023-12-28T02:19:55;2.55;;;1.17;;
32445;SDS011;18899;50.748;7.102;2023-12-28T02:22:26;3.10;;;1.40;;
32445;SDS011;18899;50.748;7.102;2023-12-28T02:27:38;1.80;;;1.23;;
32445;SDS011;18899;50.748;7.102;2023-12-28T02:30:05;2.22;;;1.00;;
32445;SDS011;18899;50.748;7.102;2023-12-28T02:32:38;1.60;;;1.00;;
32445;SDS011;18899;50.748;7.102;2023-12-28T02:35:23;4.05;;;1.20;;
32445;SDS011;18899;50.748;7.102;2023-12-28T02:37:51;1.77;;;1.10;;
32445;SDS011;18899;50.748;7.102;2023-12-28T02:40:20;2.30;;;1.30;;
32445;SDS011;18899;50.748;7.102;2023-12-28T02:42:47;2.65;;;1.00;;
32445;SDS011;18899;50.748;7.102;2023-12-28T02:45:12;1.77;;;0.98;;
32445;SDS011;18899;50.748;7.102;2023-12-28T02:47:38;3.13;;;1.42;;
32445;SDS011;18899;50.748;7.102;2023-12-28T02:50:04;2.38;;;1.23;;
32445;SDS011;18899;50.748;7.102;2023-12-28T02:52:30;3.05;;;1.10;;
32445;SDS011;18899;50.748;7.102;2023-12-28T02:54:56;1.92;;;1.02;;
32445;SDS011;18899;50.748;7.102;2023-12-28T02:57:21;2.80;;;1.27;;
32445;SDS011;18899;50.748;7.102;2023-12-28T02:59:47;4.93;;;1.40;;
32445;SDS011;18899;50.748;7.102;2023-12-28T03:02:12;2.55;;;1.17;;
32445;SDS011;18899;50.748;7.102;2023-12-28T03:04:38;1.75;;;1.10;;
32445;SDS011;18899;50.748;7.102;2023-12-28T03:07:04;2.42;;;1.20;;
32445;SDS011;18899;50.748;7.102;2023-12-28T03:09:31;1.77;;;0.93;;
32445;SDS011;18899;50.748;7.102;2023-12-28T03:11:56;4.03;;;1.15;;
32445;SDS011;18899;50.748;7.102;2023-12-28T03:14:22;5.00;;;1.10;;
32445;SDS011;18899;50.748;7.102;2023-12-28T03:16:47;6.32;;;1.35;;
32445;SDS011;18899;50.748;7.102;2023-12-28T03:19:13;2.50;;;1.40;;
32445;SDS011;18899;50.748;7.102;2023-12-28T03:21:39;1.38;;;1.10;;
32445;SDS011;18899;50.748;7.102;2023-12-28T03:24:05;2.47;;;1.10;;
32445;SDS011;18899;50.748;7.102;2023-12-28T03:26:31;3.42;;;1.33;;
32445;SDS011;18899;50.748;7.102;2023-12-28T03:28:56;3.25;;;1.15;;
32445;SDS011;18899;50.748;7.102;2023-12-28T03:31:22;3.35;;;1.30;;
32445;SDS011;18899;50.748;7.102;2023-12-28T03:33:48;2.00;;;1.10;;
32445;SDS011;18899;50.748;7.102;2023-12-28T03:36:20;3.53;;;1.10;;
32445;SDS011;18899;50.748;7.102;2023-12-28T03:38:46;1.25;;;0.95;;
32445;SDS011;18899;50.748;7.102;2023-12-28T03:41:17;1.77;;;1.00;;
32445;SDS011;18899;50.748;7.102;2023-12-28T03:43:44;1.90;;;1.23;;
32445;SDS011;18899;50.748;7.102;2023-12-28T03:46:10;1.55;;;0.93;;
32445;SDS011;18899;50.748;7.102;2023-12-28T03:48:36;2.28;;;1.20;;
32445;SDS011;18899;50.748;7.102;2023-12-28T03:51:02;1.95;;;1.10;;
32445;SDS011;18899;50.748;7.102;2023-12-28T03:53:28;1.80;;;1.13;;
32445;SDS011;18899;50.748;7.102;2023-12-28T03:55:54;3.35;;;1.27;;
32445;SDS011;18899;50.748;7.102;2023-12-28T03:58:19;2.53;;;1.30;;
32445;SDS011;18899;50.748;7.102;2023-12-28T04:00:44;2.75;;;1.23;;
32445;SDS011;18899;50.748;7.102;2023-12-28T04:03:10;2.47;;;1.17;;
32445;SDS011;18899;50.748;7.102;2023-12-28T04:05:36;4.10;;;1.48;;
32445;SDS011;18899;50.748;7.102;2023-12-28T04:08:01;2.78;;;1.08;;
32445;SDS011;18899;50.748;7.102;2023-12-28T04:10:31;1.70;;;1.17;;
32445;SDS011;18899;50.748;7.102;2023-12-28T04:12:57;1.93;;;1.20;;
32445;SDS011;18899;50.748;7.102;2023-12-28T04:15:24;2.60;;;1.40;;
32445;SDS011;18899;50.748;7.102;2023-12-28T04:17:50;4.68;;;1.15;;
32445;SDS011;18899;50.748;7.102;2023-12-28T04:20:16;2.70;;;1.48;;
32445;SDS011;18899;50.748;7.102;2023-12-28T04:22:42;2.45;;;1.30;;
32445;SDS011;18899;50.748;7.102;2023-12-28T04:25:08;3.88;;;1.80;;
32445;SDS011;18899;50.748;7.102;2023-12-28T04:27:34;3.35;;;1.15;;
32445;SDS011;18899;50.748;7.102;2023-12-28T04:30:00;1.95;;;1.27;;
32445;SDS011;18899;50.748;7.102;2023-12-28T04:32:25;3.28;;;2.08;;
32445;SDS011;18899;50.748;7.102;2023-12-28T04:34:52;3.58;;;1.50;;
32445;SDS011;18899;50.748;7.102;2023-12-28T04:37:19;3.25;;;1.42;;
32445;SDS011;18899;50.748;7.102;2023-12-28T04:39:44;2.22;;;1.40;;
32445;SDS011;18899;50.748;7.102;2023-12-28T04:42:10;4.30;;;1.42;;
32445;SDS011;18899;50.748;7.102;2023-12-28T04:44:39;3.15;;;1.40;;
32445;SDS011;18899;50.748;7.102;2023-12-28T04:47:05;2.63;;;1.50;;
32445;SDS011;18899;50.748;7.102;2023-12-28T04:49:30;2.47;;;1.27;;
32445;SDS011;18899;50.748;7.102;2023-12-28T04:51:56;4.72;;;1.70;;
32445;SDS011;18899;50.748;7.102;2023-12-28T04:54:22;2.63;;;1.42;;
32445;SDS011;18899;50.748;7.102;2023-12-28T04:56:47;3.42;;;1.40;;
32445;SDS011;18899;50.748;7.102;2023-12-28T04:59:13;3.80;;;1.70;;
32445;SDS011;18899;50.748;7.102;2023-12-28T05:01:45;3.47;;;1.55;;
32445;SDS011;18899;50.748;7.102;2023-12-28T05:04:11;2.35;;;1.60;;
32445;SDS011;18899;50.748;7.102;2023-12-28T05:06:37;3.15;;;1.50;;
32445;SDS011;18899;50.748;7.102;2023-12-28T05:09:03;3.63;;;1.30;;
32445;SDS011;18899;50.748;7.102;2023-12-28T05:11:29;3.22;;;1.42;;
32445;SDS011;18899;50.748;7.102;2023-12-28T05:13:55;3.80;;;1.63;;
32445;SDS011;18899;50.748;7.102;2023-12-28T05:16:21;3.05;;;1.40;;
32445;SDS011;18899;50.748;7.102;2023-12-28T05:18:47;2.63;;;1.40;;
32445;SDS011;18899;50.748;7.102;2023-12-28T05:21:12;3.85;;;1.60;;
32445;SDS011;18899;50.748;7.102;2023-12-28T05:23:39;4.80;;;1.42;;
32445;SDS011;18899;50.748;7.102;2023-12-28T05:26:04;4.40;;;1.48;;
32445;SDS011;18899;50.748;7.102;2023-12-28T05:28:31;4.30;;;1.67;;
32445;SDS011;18899;50.748;7.102;2023-12-28T05:30:56;4.15;;;1.40;;
32445;SDS011;18899;50.748;7.102;2023-12-28T05:33:24;3.03;;;1.35;;
32445;SDS011;18899;50.748;7.102;2023-12-28T05:35:52;3.53;;;1.60;;
32445;SDS011;18899;50.748;7.102;2023-12-28T05:38:18;5.10;;;1.50;;
32445;SDS011;18899;50.748;7.102;2023-12-28T05:40:43;4.20;;;1.45;;
32445;SDS011;18899;50.748;7.102;2023-12-28T05:43:12;6.43;;;1.80;;
32445;SDS011;18899;50.748;7.102;2023-12-28T05:45:38;4.22;;;1.60;;
32445;SDS011;18899;50.748;7.102;2023-12-28T05:48:03;2.30;;;1.42;;
32445;SDS011;18899;50.748;7.102;2023-12-28T05:50:29;3.03;;;1.40;;
32445;SDS011;18899;50.748;7.102;2023-12-28T05:52:55;6.15;;;1.52;;
32445;SDS011;18899;50.748;7.102;2023-12-28T05:55:21;4.90;;;1.48;;
32445;SDS011;18899;50.748;7.102;2023-12-28T05:57:47;7.72;;;2.00;;
32445;SDS011;18899;50.748;7.102;2023-12-28T06:00:13;5.93;;;1.38;;
32445;SDS011;18899;50.748;7.102;2023-12-28T06:02:39;2.40;;;1.40;;
32445;SDS011;18899;50.748;7.102;2023-12-28T06:05:05;3.72;;;1.58;;
32445;SDS011;18899;50.748;7.102;2023-12-28T06:07:31;4.53;;;1.73;;
32445;SDS011;18899;50.748;7.102;2023-12-28T06:09:57;3.15;;;1.50;;
32445;SDS011;18899;50.748;7.102;2023-12-28T06:12:22;3.40;;;1.48;;
32445;SDS011;18899;50.748;7.102;2023-12-28T06:14:48;3.28;;;1.50;;
32445;SDS011;18899;50.748;7.102;2023-12-28T06:17:13;2.90;;;1.60;;
32445;SDS011;18899;50.748;7.102;2023-12-28T06:19:40;4.05;;;1.55;;
32445;SDS011;18899;50.748;7.102;2023-12-28T06:22:06;4.28;;;1.50;;
32445;SDS011;18899;50.748;7.102;2023-12-28T06:24:31;5.68;;;2.03;;
32445;SDS011;18899;50.748;7.102;2023-12-28T06:26:57;10.68;;;1.98;;
32445;SDS011;18899;50.748;7.102;2023-12-28T06:29:23;6.85;;;1.65;;
32445;SDS011;18899;50.748;7.102;2023-12-28T06:31:48;5.80;;;1.92;;
32445;SDS011;18899;50.748;7.102;2023-12-28T06:34:14;6.10;;;2.05;;
32445;SDS011;18899;50.748;7.102;2023-12-28T06:36:39;7.65;;;1.58;;
32445;SDS011;18899;50.748;7.102;2023-12-28T06:39:05;4.70;;;1.70;;
32445;SDS011;18899;50.748;7.102;2023-12-28T06:41:31;5.82;;;1.73;;
32445;SDS011;18899;50.748;7.102;2023-12-28T06:43:56;4.28;;;1.80;;
32445;SDS011;18899;50.748;7.102;2023-12-28T06:46:22;5.25;;;2.20;;
32445;SDS011;18899;50.748;7.102;2023-12-28T06:48:48;7.18;;;1.85;;
32445;SDS011;18899;50.748;7.102;2023-12-28T06:51:19;4.57;;;1.80;;
32445;SDS011;18899;50.748;7.102;2023-12-28T06:53:46;3.35;;;1.58;;
32445;SDS011;18899;50.748;7.102;2023-12-28T06:56:13;4.63;;;1.75;;
32445;SDS011;18899;50.748;7.102;2023-12-28T06:58:39;5.50;;;1.63;;
32445;SDS011;18899;50.748;7.102;2023-12-28T07:01:05;5.70;;;1.80;;
32445;SDS011;18899;50.748;7.102;2023-12-28T07:03:32;7.97;;;1.90;;
32445;SDS011;18899;50.748;7.102;2023-12-28T07:05:58;6.82;;;1.48;;
32445;SDS011;18899;50.748;7.102;2023-12-28T07:08:24;6.82;;;1.83;;
32445;SDS011;18899;50.748;7.102;2023-12-28T07:10:50;7.85;;;1.88;;
32445;SDS011;18899;50.748;7.102;2023-12-28T07:13:15;3.15;;;1.50;;
32445;SDS011;18899;50.748;7.102;2023-12-28T07:15:41;7.63;;;2.33;;
32445;SDS011;18899;50.748;7.102;2023-12-28T07:18:06;6.18;;;1.90;;
32445;SDS011;18899;50.748;7.102;2023-12-28T07:20:32;4.88;;;1.60;;
32445;SDS011;18899;50.748;7.102;2023-12-28T07:22:57;3.72;;;1.45;;
32445;SDS011;18899;50.748;7.102;2023-12-28T07:25:23;7.18;;;2.78;;
32445;SDS011;18899;50.748;7.102;2023-12-28T07:27:48;4.82;;;1.88;;
32445;SDS011;18899;50.748;7.102;2023-12-28T07:30:14;8.80;;;1.90;;
32445;SDS011;18899;50.748;7.102;2023-12-28T07:32:41;3.92;;;1.40;;
32445;SDS011;18899;50.748;7.102;2023-12-28T07:35:07;5.85;;;1.65;;
32445;SDS011;18899;50.748;7.102;2023-12-28T07:37:33;6.80;;;1.58;;
32445;SDS011;18899;50.748;7.102;2023-12-28T07:39:59;5.32;;;1.77;;
32445;SDS011;18899;50.748;7.102;2023-12-28T07:42:24;5.25;;;1.52;;
32445;SDS011;18899;50.748;7.102;2023-12-28T07:44:50;6.70;;;1.80;;
32445;SDS011;18899;50.748;7.102;2023-12-28T07:47:15;7.63;;;1.95;;
32445;SDS011;18899;50.748;7.102;2023-12-28T07:49:41;5.55;;;1.42;;
32445;SDS011;18899;50.748;7.102;2023-12-28T07:52:07;6.85;;;2.03;;
32445;SDS011;18899;50.748;7.102;2023-12-28T07:54:32;3.47;;;1.50;;
32445;SDS011;18899;50.748;7.102;2023-12-28T07:56:59;5.45;;;1.60;;
32445;SDS011;18899;50.748;7.102;2023-12-28T07:59:24;8.80;;;1.90;;
32445;SDS011;18899;50.748;7.102;2023-12-28T08:01:50;7.05;;;1.95;;
32445;SDS011;18899;50.748;7.102;2023-12-28T08:04:16;6.65;;;1.60;;
32445;SDS011;18899;50.748;7.102;2023-12-28T08:06:41;10.00;;;1.85;;
32445;SDS011;18899;50.748;7.102;2023-12-28T08:09:07;6.35;;;1.60;;
32445;SDS011;18899;50.748;7.102;2023-12-28T08:11:33;7.60;;;1.50;;
32445;SDS011;18899;50.748;7.102;2023-12-28T08:13:59;6.88;;;1.95;;
32445;SDS011;18899;50.748;7.102;2023-12-28T08:16:25;9.05;;;2.17;;
32445;SDS011;18899;50.748;7.102;2023-12-28T08:18:51;4.55;;;2.00;;
32445;SDS011;18899;50.748;7.102;2023-12-28T08:21:16;4.65;;;1.60;;
32445;SDS011;18899;50.748;7.102;2023-12-28T08:23:52;6.97;;;2.03;;
32445;SDS011;18899;50.748;7.102;2023-12-28T08:26:17;4.32;;;1.70;;
32445;SDS011;18899;50.748;7.102;2023-12-28T08:28:43;5.60;;;1.35;;
32445;SDS011;18899;50.748;7.102;2023-12-28T08:31:08;5.80;;;1.63;;
32445;SDS011;18899;50.748;7.102;2023-12-28T08:33:34;4.45;;;1.65;;
32445;SDS011;18899;50.748;7.102;2023-12-28T08:36:04;4.57;;;1.52;;
32445;SDS011;18899;50.748;7.102;2023-12-28T08:38:30;4.90;;;1.83;;
32445;SDS011;18899;50.748;7.102;2023-12-28T08:40:56;6.65;;;1.73;;
32445;SDS011;18899;50.748;7.102;2023-12-28T08:43:21;5.47;;;1.80;;
32445;SDS011;18899;50.748;7.102;2023-12-28T08:45:47;5.32;;;1.88;;
32445;SDS011;18899;50.748;7.102;2023-12-28T08:48:12;4.32;;;1.63;;
32445;SDS011;18899;50.748;7.102;2023-12-28T08:50:38;4.30;;;1.67;;
32445;SDS011;18899;50.748;7.102;2023-12-28T08:53:03;6.80;;;1.77;;
32445;SDS011;18899;50.748;7.102;2023-12-28T08:55:29;4.40;;;1.52;;
32445;SDS011;18899;50.748;7.102;2023-12-28T08:57:54;3.67;;;1.40;;
32445;SDS011;18899;50.748;7.102;2023-12-28T09:00:20;4.85;;;1.45;;
32445;SDS011;18899;50.748;7.102;2023-12-28T09:02:46;4.60;;;1.40;;
32445;SDS011;18899;50.748;7.102;2023-12-28T09:05:11;5.75;;;1.55;;
32445;SDS011;18899;50.748;7.102;2023-12-28T09:07:37;3.92;;;1.40;;
32445;SDS011;18899;50.748;7.102;2023-12-28T09:10:08;5.90;;;1.40;;
32445;SDS011;18899;50.748;7.102;2023-12-28T09:12:37;6.47;;;1.67;;
32445;SDS011;18899;50.748;7.102;2023-12-28T09:15:04;6.80;;;1.42;;
32445;SDS011;18899;50.748;7.102;2023-12-28T09:17:30;5.75;;;1.38;;
32445;SDS011;18899;50.748;7.102;2023-12-28T09:19:55;4.63;;;1.30;;
32445;SDS011;18899;50.748;7.102;2023-12-28T09:22:23;6.47;;;1.67;;
32445;SDS011;18899;50.748;7.102;2023-12-28T09:24:48;5.72;;;1.40;;
32445;SDS011;18899;50.748;7.102;2023-12-28T09:27:14;6.55;;;1.38;;
32445;SDS011;18899;50.748;7.102;2023-12-28T09:29:39;4.93;;;1.13;;
32445;SDS011;18899;50.748;7.102;2023-12-28T09:32:05;2.72;;;1.00;;
32445;SDS011;18899;50.748;7.102;2023-12-28T09:34:31;5.80;;;1.30;;
32445;SDS011;18899;50.748;7.102;2023-12-28T09:36:57;4.57;;;1.40;;
32445;SDS011;18899;50.748;7.102;2023-12-28T09:39:22;5.88;;;1.30;;
32445;SDS011;18899;50.748;7.102;2023-12-28T09:41:49;13.38;;;1.38;;
32445;SDS011;18899;50.748;7.102;2023-12-28T09:44:20;4.82;;;1.35;;
32445;SDS011;18899;50.748;7.102;2023-12-28T09:46:47;7.63;;;1.75;;
32445;SDS011;18899;50.748;7.102;2023-12-28T09:49:13;7.93;;;1.52;;
32445;SDS011;18899;50.748;7.102;2023-12-28T09:51:38;7.05;;;1.52;;
32445;SDS011;18899;50.748;7.102;2023-12-28T09:54:04;10.68;;;1.63;;
32445;SDS011;18899;50.748;7.102;2023-12-28T09:56:30;6.28;;;1.20;;
32445;SDS011;18899;50.748;7.102;2023-12-28T09:58:57;8.20;;;1.60;;
32445;SDS011;18899;50.748;7.102;2023-12-28T10:01:23;3.80;;;1.60;;
32445;SDS011;18899;50.748;7.102;2023-12-28T10:03:49;4.18;;;1.10;;
32445;SDS011;18899;50.748;7.102;2023-12-28T10:06:15;4.72;;;1.60;;
32445;SDS011;18899;50.748;7.102;2023-12-28T10:08:47;8.20;;;1.60;;
32445;SDS011;18899;50.748;7.102;2023-12-28T10:11:16;7.50;;;1.30;;
32445;SDS011;18899;50.748;7.102;2023-12-28T10:13:43;5.25;;;1.40;;
32445;SDS011;18899;50.748;7.102;2023-12-28T10:16:10;7.28;;;1.30;;
32445;SDS011;18899;50.748;7.102;2023-12-28T10:18:44;7.13;;;1.52;;
32445;SDS011;18899;50.748;7.102;2023-12-28T10:21:10;7.32;;;1.52;;
32445;SDS011;18899;50.748;7.102;2023-12-28T10:23:37;6.95;;;1.67;;
32445;SDS011;18899;50.748;7.102;2023-12-28T10:26:03;5.32;;;1.25;;
32445;SDS011;18899;50.748;7.102;2023-12-28T10:28:32;6.63;;;1.60;;
32445;SDS011;18899;50.748;7.102;2023-12-28T10:30:59;7.20;;;1.75;;
32445;SDS011;18899;50.748;7.102;2023-12-28T10:33:26;7.10;;;1.58;;
32445;SDS011;18899;50.748;7.102;2023-12-28T10:35:51;6.65;;;1.17;;
32445;SDS011;18899;50.748;7.102;2023-12-28T10:38:17;9.82;;;1.35;;
32445;SDS011;18899;50.748;7.102;2023-12-28T10:40:44;6.25;;;1.48;;
32445;SDS011;18899;50.748;7.102;2023-12-28T10:43:11;5.72;;;1.60;;
32445;SDS011;18899;50.748;7.102;2023-12-28T10:45:40;5.07;;;1.20;;
32445;SDS011;18899;50.748;7.102;2023-12-28T10:48:09;6.35;;;1.67;;
32445;SDS011;18899;50.748;7.102;2023-12-28T10:50:39;6.40;;;1.73;;
32445;SDS011;18899;50.748;7.102;2023-12-28T10:58:41;5.82;;;1.77;;
32445;SDS011;18899;50.748;7.102;2023-12-28T11:01:39;7.97;;;1.30;;
32445;SDS011;18899;50.748;7.102;2023-12-28T11:06:42;6.82;;;1.33;;
32445;SDS011;18899;50.748;7.102;2023-12-28T11:09:09;7.28;;;1.50;;
32445;SDS011;18899;50.748;7.102;2023-12-28T11:11:36;10.65;;;1.70;;
32445;SDS011;18899;50.748;7.102;2023-12-28T11:14:03;8.90;;;1.63;;
32445;SDS011;18899;50.748;7.102;2023-12-28T11:16:29;4.93;;;1.23;;
32445;SDS011;18899;50.748;7.102;2023-12-28T11:18:57;12.45;;;1.98;;
32445;SDS011;18899;50.748;7.102;2023-12-28T11:21:23;10.98;;;1.90;;
32445;SDS011;18899;50.748;7.102;2023-12-28T11:23:50;11.52;;;1.42;;
32445;SDS011;18899;50.748;7.102;2023-12-28T11:26:17;9.27;;;1.73;;
32445;SDS011;18899;50.748;7.102;2023-12-28T11:28:43;6.22;;;1.38;;
32445;SDS011;18899;50.748;7.102;2023-12-28T11:31:09;8.73;;;1.40;;
32445;SDS011;18899;50.748;7.102;2023-12-28T11:33:56;7.07;;;1.10;;
32445;SDS011;18899;50.748;7.102;2023-12-28T11:36:22;2.30;;;0.98;;
32445;SDS011;18899;50.748;7.102;2023-12-28T11:38:54;3.35;;;1.20;;
32445;SDS011;18899;50.748;7.102;2023-12-28T11:41:26;7.75;;;1.95;;
32445;SDS011;18899;50.748;7.102;2023-12-28T11:43:54;8.20;;;1.40;;
32445;SDS011;18899;50.748;7.102;2023-12-28T11:46:20;5.45;;;1.20;;
32445;SDS011;18899;50.748;7.102;2023-12-28T11:48:47;5.78;;;1.58;;
32445;SDS011;18899;50.748;7.102;2023-12-28T11:51:12;5.55;;;1.35;;
32445;SDS011;18899;50.748;7.102;2023-12-28T11:53:38;7.30;;;1.45;;
32445;SDS011;18899;50.748;7.102;2023-12-28T11:56:06;11.10;;;1.27;;
32445;SDS011;18899;50.748;7.102;2023-12-28T11:58:34;9.32;;;1.40;;
32445;SDS011;18899;50.748;7.102;2023-12-28T12:01:00;6.15;;;1.73;;
32445;SDS011;18899;50.748;7.102;2023-12-28T12:03:27;4.53;;;1.08;;
32445;SDS011;18899;50.748;7.102;2023-12-28T12:05:55;8.60;;;1.65;;
32445;SDS011;18899;50.748;7.102;2023-12-28T12:08:22;7.28;;;1.65;;
32445;SDS011;18899;50.748;7.102;2023-12-28T12:10:48;6.20;;;1.55;;
32445;SDS011;18899;50.748;7.102;2023-12-28T12:13:13;5.32;;;1.27;;
32445;SDS011;18899;50.748;7.102;2023-12-28T12:15:39;5.28;;;1.00;;
32445;SDS011;18899;50.748;7.102;2023-12-28T12:18:05;9.98;;;1.50;;
32445;SDS011;18899;50.748;7.102;2023-12-28T12:20:30;6.72;;;1.05;;
32445;SDS011;18899;50.748;7.102;2023-12-28T12:22:59;7.78;;;1.55;;
32445;SDS011;18899;50.748;7.102;2023-12-28T12:25:25;6.60;;;1.23;;
32445;SDS011;18899;50.748;7.102;2023-12-28T12:27:51;4.75;;;1.55;;
32445;SDS011;18899;50.748;7.102;2023-12-28T12:30:17;9.70;;;1.85;;
32445;SDS011;18899;50.748;7.102;2023-12-28T12:32:43;7.43;;;1.70;;
32445;SDS011;18899;50.748;7.102;2023-12-28T12:35:09;6.65;;;1.63;;
32445;SDS011;18899;50.748;7.102;2023-12-28T12:37:36;7.47;;;1.30;;
32445;SDS011;18899;50.748;7.102;2023-12-28T12:40:02;8.32;;;1.50;;
32445;SDS011;18899;50.748;7.102;2023-12-28T12:42:30;10.50;;;1.45;;
32445;SDS011;18899;50.748;7.102;2023-12-28T12:44:57;5.75;;;1.38;;
32445;SDS011;18899;50.748;7.102;2023-12-28T12:47:22;9.93;;;1.50;;
32445;SDS011;18899;50.748;7.102;2023-12-28T12:49:48;5.28;;;1.50;;
32445;SDS011;18899;50.748;7.102;2023-12-28T12:52:16;8.07;;;1.70;;
32445;SDS011;18899;50.748;7.102;2023-12-28T12:54:42;7.15;;;1.33;;
32445;SDS011;18899;50.748;7.102;2023-12-28T12:57:07;11.05;;;1.50;;
32445;SDS011;18899;50.748;7.102;2023-12-28T12:59:33;10.88;;;1.80;;
32445;SDS011;18899;50.748;7.102;2023-12-28T13:02:00;8.27;;;1.45;;
32445;SDS011;18899;50.748;7.102;2023-12-28T13:04:26;7.30;;;1.08;;
32445;SDS011;18899;50.748;7.102;2023-12-28T13:06:51;6.13;;;1.20;;
32445;SDS011;18899;50.748;7.102;2023-12-28T13:09:17;4.95;;;1.30;;
32445;SDS011;18899;50.748;7.102;2023-12-28T13:11:43;8.40;;;1.15;;
32445;SDS011;18899;50.748;7.102;2023-12-28T13:14:09;5.10;;;1.23;;
32445;SDS011;18899;50.748;7.102;2023-12-28T13:16:34;4.82;;;1.10;;
32445;SDS011;18899;50.748;7.102;2023-12-28T13:19:00;3.85;;;1.35;;
32445;SDS011;18899;50.748;7.102;2023-12-28T13:21:25;8.93;;;1.40;;
32445;SDS011;18899;50.748;7.102;2023-12-28T13:23:51;7.53;;;1.42;;
32445;SDS011;18899;50.748;7.102;2023-12-28T13:26:16;6.93;;;1.60;;
32445;SDS011;18899;50.748;7.102;2023-12-28T13:28:42;7.13;;;1.30;;
32445;SDS011;18899;50.748;7.102;2023-12-28T13:31:08;7.82;;;1.38;;
32445;SDS011;18899;50.748;7.102;2023-12-28T13:33:33;5.43;;;1.20;;
32445;SDS011;18899;50.748;7.102;2023-12-28T13:35:59;9.35;;;1.40;;
32445;SDS011;18899;50.748;7.102;2023-12-28T13:38:24;7.63;;;1.40;;
32445;SDS011;18899;50.748;7.102;2023-12-28T13:40:50;8.18;;;1.83;;
32445;SDS011;18899;50.748;7.102;2023-12-28T13:43:16;10.05;;;1.50;;
32445;SDS011;18899;50.748;7.102;2023-12-28T13:45:42;7.10;;;1.98;;
32445;SDS011;18899;50.748;7.102;2023-12-28T13:48:07;8.57;;;1.42;;
32445;SDS011;18899;50.748;7.102;2023-12-28T13:50:34;7.53;;;1.20;;
32445;SDS011;18899;50.748;7.102;2023-12-28T13:52:59;9.45;;;1.83;;
32445;SDS011;18899;50.748;7.102;2023-12-28T13:55:25;5.70;;;1.20;;
32445;SDS011;18899;50.748;7.102;2023-12-28T13:57:50;7.88;;;1.20;;
32445;SDS011;18899;50.748;7.102;2023-12-28T14:00:16;7.72;;;1.52;;
32445;SDS011;18899;50.748;7.102;2023-12-28T14:02:41;4.32;;;1.08;;
32445;SDS011;18899;50.748;7.102;2023-12-28T14:05:08;6.50;;;1.35;;
32445;SDS011;18899;50.748;7.102;2023-12-28T14:07:34;5.15;;;1.00;;
32445;SDS011;18899;50.748;7.102;2023-12-28T14:09:59;7.60;;;1.30;;
32445;SDS011;18899;50.748;7.102;2023-12-28T14:12:25;12.80;;;1.52;;
32445;SDS011;18899;50.748;7.102;2023-12-28T14:14:50;9.50;;;1.20;;
32445;SDS011;18899;50.748;7.102;2023-12-28T14:17:16;8.55;;;1.67;;
32445;SDS011;18899;50.748;7.102;2023-12-28T14:19:45;3.67;;;0.85;;
32445;SDS011;18899;50.748;7.102;2023-12-28T14:22:11;6.25;;;1.38;;
32445;SDS011;18899;50.748;7.102;2023-12-28T14:24:37;9.00;;;1.50;;
32445;SDS011;18899;50.748;7.102;2023-12-28T14:27:03;8.40;;;1.60;;
32445;SDS011;18899;50.748;7.102;2023-12-28T14:29:29;12.05;;;1.67;;
32445;SDS011;18899;50.748;7.102;2023-12-28T14:31:55;11.45;;;1.63;;
32445;SDS011;18899;50.748;7.102;2023-12-28T14:34:20;7.93;;;1.83;;
32445;SDS011;18899;50.748;7.102;2023-12-28T14:36:46;10.25;;;1.30;;
32445;SDS011;18899;50.748;7.102;2023-12-28T14:39:15;6.05;;;1.45;;
32445;SDS011;18899;50.748;7.102;2023-12-28T14:41:45;6.20;;;1.02;;
32445;SDS011;18899;50.748;7.102;2023-12-28T14:44:11;9.70;;;1.30;;
32445;SDS011;18899;50.748;7.102;2023-12-28T14:46:36;6.45;;;1.77;;
32445;SDS011;18899;50.748;7.102;2023-12-28T14:49:02;11.13;;;1.25;;
32445;SDS011;18899;50.748;7.102;2023-12-28T14:51:28;6.18;;;1.90;;
32445;SDS011;18899;50.748;7.102;2023-12-28T14:53:54;8.98;;;1.38;;
32445;SDS011;18899;50.748;7.102;2023-12-28T14:56:20;9.75;;;1.80;;